createdAt,value
2023-05-06T00:01:44.413Z,12.35
2023-05-06T00:04:10.772Z,11.80
2023-05-06T00:06:37.074Z,9.57
2023-05-06T00:09:03.811Z,9.82
2023-05-06T00:11:30.706Z,10.70
2023-05-06T00:13:57.004Z,10.65
2023-05-06T00:16:23.520Z,10.93
2023-05-06T00:18:49.967Z,11.63
2023-05-06T00:21:16.445Z,11.45
2023-05-06T00:23:42.879Z,11.38
2023-05-06T00:26:09.583Z,10.50
2023-05-06T00:28:35.958Z,11.65
2023-05-06T00:31:02.469Z,12.55
2023-05-06T00:33:28.807Z,11.07
2023-05-06T00:35:55.106Z,11.18
2023-05-06T00:38:21.923Z,14.40
2023-05-06T00:40:48.701Z,12.77
2023-05-06T00:43:14.967Z,11.38
2023-05-06T00:45:41.410Z,13.18
2023-05-06T00:48:08.034Z,12.63
2023-05-06T00:50:34.683Z,11.20
2023-05-06T00:53:02.287Z,12.93
2023-05-06T00:55:28.740Z,13.57
2023-05-06T00:57:55.308Z,12.75
2023-05-06T01:00:22.119Z,11.25
2023-05-06T01:02:49.053Z,11.23
2023-05-06T01:05:20.881Z,10.20
2023-05-06T01:08:05.884Z,13.68
2023-05-06T01:10:32.206Z,13.17
2023-05-06T01:13:17.367Z,14.07
2023-05-06T01:15:43.730Z,11.45
2023-05-06T01:18:17.263Z,10.82
2023-05-06T01:20:47.758Z,13.20
2023-05-06T01:23:14.653Z,11.50
2023-05-06T01:25:41.130Z,12.32
2023-05-06T01:28:10.299Z,12.80
2023-05-06T01:30:48.881Z,13.63
2023-05-06T01:33:35.521Z,12.20
2023-05-06T01:36:11.135Z,12.00
2023-05-06T01:38:52.600Z,12.77
2023-05-06T01:41:20.648Z,13.48
2023-05-06T01:43:47.725Z,14.30
2023-05-06T01:46:17.785Z,13.43
2023-05-06T01:48:45.574Z,11.68
2023-05-06T01:51:11.935Z,12.15
2023-05-06T01:53:38.745Z,13.07
2023-05-06T01:56:05.292Z,11.45
2023-05-06T01:58:31.605Z,11.88
2023-05-06T02:00:57.897Z,13.82
2023-05-06T02:03:24.320Z,14.52
2023-05-06T02:05:50.871Z,17.75
2023-05-06T02:08:17.437Z,14.98
2023-05-06T02:10:43.767Z,13.10
2023-05-06T02:13:10.760Z,12.60
2023-05-06T02:15:37.120Z,13.80
2023-05-06T02:18:03.567Z,14.85
2023-05-06T02:20:30.224Z,18.30
2023-05-06T02:22:57.156Z,15.02
2023-05-06T02:25:23.588Z,15.27
2023-05-06T02:27:49.884Z,14.05
2023-05-06T02:30:16.260Z,15.35
2023-05-06T02:32:42.545Z,17.73
2023-05-06T02:35:09.234Z,18.83
2023-05-06T02:37:35.697Z,15.40
2023-05-06T02:40:01.994Z,16.00
2023-05-06T02:42:29.185Z,14.02
2023-05-06T02:44:55.585Z,13.73
2023-05-06T02:47:21.917Z,14.63
2023-05-06T02:49:48.337Z,16.50
2023-05-06T02:52:14.598Z,16.02
2023-05-06T02:54:40.912Z,17.05
2023-05-06T02:57:07.359Z,16.65
2023-05-06T02:59:34.992Z,16.50
2023-05-06T03:02:01.326Z,16.17
2023-05-06T03:04:27.717Z,15.40
2023-05-06T03:06:54.111Z,17.00
2023-05-06T03:09:20.360Z,18.50
2023-05-06T03:11:46.715Z,19.80
2023-05-06T03:14:12.962Z,17.77
2023-05-06T03:16:39.282Z,17.75
2023-05-06T03:19:05.660Z,21.95
2023-05-06T03:21:32.116Z,19.52
2023-05-06T03:23:59.248Z,15.80
2023-05-06T03:26:25.802Z,18.60
2023-05-06T03:28:52.080Z,17.05
2023-05-06T03:31:18.465Z,18.95
2023-05-06T03:33:44.801Z,17.83
2023-05-06T03:36:12.766Z,17.77
2023-05-06T03:38:39.147Z,17.98
2023-05-06T03:41:05.533Z,19.05
2023-05-06T03:43:31.830Z,23.17
2023-05-06T03:45:59.174Z,19.75
2023-05-06T03:48:25.778Z,17.00
2023-05-06T03:50:52.133Z,17.75
2023-05-06T03:53:18.851Z,18.25
2023-05-06T03:55:45.264Z,19.92
2023-05-06T03:58:11.658Z,19.83
2023-05-06T04:00:37.971Z,20.75
2023-05-06T04:03:04.508Z,16.80
2023-05-06T04:05:31.092Z,17.00
2023-05-06T04:07:57.465Z,20.00
2023-05-06T04:10:23.815Z,17.90
2023-05-06T04:12:50.366Z,18.25
2023-05-06T04:15:16.706Z,19.60
2023-05-06T04:17:43.085Z,21.52
2023-05-06T04:20:11.619Z,17.70
2023-05-06T04:22:38.644Z,18.42
2023-05-06T04:25:05.274Z,18.63
2023-05-06T04:27:32.156Z,20.25
2023-05-06T04:29:59.473Z,21.52
2023-05-06T04:32:25.844Z,20.70
2023-05-06T04:34:53.183Z,18.90
2023-05-06T04:37:20.015Z,20.58
2023-05-06T04:39:47.195Z,18.85
2023-05-06T04:42:14.125Z,19.83
2023-05-06T04:44:41.465Z,17.77
2023-05-06T04:47:07.808Z,19.27
2023-05-06T04:49:34.390Z,19.48
2023-05-06T04:52:01.073Z,18.42
2023-05-06T04:54:27.495Z,19.27
2023-05-06T04:56:54.494Z,20.20
2023-05-06T04:59:20.807Z,28.88
2023-05-06T05:01:47.214Z,20.55
2023-05-06T05:04:13.484Z,22.42
2023-05-06T05:06:39.810Z,23.42
2023-05-06T05:09:06.410Z,20.65
2023-05-06T05:11:32.738Z,22.45
2023-05-06T05:14:01.672Z,22.63
2023-05-06T05:16:29.222Z,22.90
2023-05-06T05:18:55.659Z,22.92
2023-05-06T05:21:22.059Z,24.13
2023-05-06T05:23:48.424Z,23.65
2023-05-06T05:26:14.843Z,23.02
2023-05-06T05:28:41.204Z,23.83
2023-05-06T05:31:10.210Z,24.25
2023-05-06T05:33:37.116Z,22.80
2023-05-06T05:36:03.994Z,24.58
2023-05-06T05:38:30.382Z,22.20
2023-05-06T05:40:56.782Z,24.60
2023-05-06T05:43:25.887Z,23.63
2023-05-06T05:45:52.251Z,21.70
2023-05-06T05:48:18.563Z,23.02
2023-05-06T05:50:44.900Z,23.23
2023-05-06T05:53:11.295Z,20.65
2023-05-06T05:55:37.650Z,24.42
2023-05-06T05:58:03.951Z,21.58
2023-05-06T06:00:30.293Z,20.95
2023-05-06T06:02:56.740Z,21.60
2023-05-06T06:05:23.084Z,20.17
2023-05-06T06:07:49.593Z,21.33
2023-05-06T06:10:15.923Z,20.83
2023-05-06T06:12:44.095Z,22.75
2023-05-06T06:15:11.164Z,21.08
2023-05-06T06:17:37.738Z,20.75
2023-05-06T06:20:04.975Z,21.27
2023-05-06T06:22:31.509Z,19.55
2023-05-06T06:24:57.817Z,20.70
2023-05-06T06:27:24.392Z,21.15
2023-05-06T06:29:50.851Z,21.95
2023-05-06T06:32:17.161Z,22.17
2023-05-06T06:34:43.740Z,19.63
2023-05-06T06:37:10.690Z,19.70
2023-05-06T06:39:36.997Z,22.58
2023-05-06T06:42:07.156Z,24.73
2023-05-06T06:44:34.062Z,23.85
2023-05-06T06:47:00.365Z,20.98
2023-05-06T06:49:27.428Z,20.33
2023-05-06T06:51:54.251Z,20.95
2023-05-06T06:54:20.642Z,19.20
2023-05-06T06:56:46.946Z,21.73
2023-05-06T06:59:13.307Z,24.35
2023-05-06T07:01:40.978Z,18.67
2023-05-06T07:04:07.529Z,20.55
2023-05-06T07:06:33.873Z,22.55
2023-05-06T07:09:00.256Z,23.75
2023-05-06T07:11:26.573Z,19.27
2023-05-06T07:13:52.893Z,24.83
2023-05-06T07:16:19.298Z,21.35
2023-05-06T07:18:45.622Z,20.70
2023-05-06T07:21:12.041Z,22.17
2023-05-06T07:23:38.460Z,23.63
2023-05-06T07:26:04.951Z,26.35
2023-05-06T07:28:31.437Z,21.02
2023-05-06T07:30:57.851Z,23.63
2023-05-06T07:33:24.150Z,22.00
2023-05-06T07:35:50.463Z,23.67
2023-05-06T07:38:16.767Z,23.33
2023-05-06T07:40:43.646Z,24.75
2023-05-06T07:43:10.019Z,28.73
2023-05-06T07:45:36.378Z,25.08
2023-05-06T07:48:03.071Z,27.95
2023-05-06T07:50:29.946Z,24.85
2023-05-06T07:52:56.384Z,24.23
2023-05-06T07:55:22.736Z,26.17
2023-05-06T07:57:52.192Z,23.75
2023-05-06T08:00:18.650Z,27.60
2023-05-06T08:02:46.664Z,26.90
2023-05-06T08:05:13.586Z,26.70
2023-05-06T08:07:41.224Z,25.20
2023-05-06T08:10:08.254Z,26.77
2023-05-06T08:12:35.211Z,26.25
2023-05-06T08:15:02.018Z,29.63
2023-05-06T08:17:28.918Z,31.38
2023-05-06T08:19:55.606Z,28.48
2023-05-06T08:22:21.974Z,28.73
2023-05-06T08:24:48.318Z,35.13
2023-05-06T08:27:14.669Z,27.55
2023-05-06T08:29:41.196Z,32.75
2023-05-06T08:32:07.610Z,27.17
2023-05-06T08:34:34.890Z,29.75
2023-05-06T08:37:01.625Z,28.10
2023-05-06T08:39:28.970Z,36.67
2023-05-06T08:41:56.307Z,28.63
2023-05-06T08:44:23.525Z,32.42
2023-05-06T08:46:49.984Z,30.02
2023-05-06T08:49:16.593Z,31.33
2023-05-06T08:51:46.681Z,37.38
2023-05-06T08:54:13.078Z,27.30
2023-05-06T08:56:44.447Z,30.08
2023-05-06T08:59:10.876Z,28.88
2023-05-06T09:01:37.322Z,28.92
2023-05-06T09:04:07.529Z,27.75
2023-05-06T09:06:34.259Z,31.98
2023-05-06T09:09:00.580Z,27.73
2023-05-06T09:11:29.252Z,26.73
2023-05-06T09:14:11.103Z,24.25
2023-05-06T09:16:37.889Z,25.40
2023-05-06T09:19:04.568Z,25.15
2023-05-06T09:21:34.783Z,24.70
2023-05-06T09:24:01.836Z,23.65
2023-05-06T09:26:31.619Z,19.95
2023-05-06T09:28:58.982Z,18.88
2023-05-06T09:31:25.899Z,20.88
2023-05-06T09:33:53.427Z,15.75
2023-05-06T09:36:19.858Z,17.20
2023-05-06T09:38:46.184Z,15.95
2023-05-06T09:41:12.993Z,19.45
2023-05-06T09:43:44.604Z,22.10
2023-05-06T09:46:13.963Z,20.40
2023-05-06T09:48:40.815Z,20.48
2023-05-06T09:51:07.814Z,15.98
2023-05-06T09:53:37.264Z,25.73
2023-05-06T09:56:07.221Z,15.32
2023-05-06T09:58:34.135Z,17.42
2023-05-06T10:01:01.436Z,15.93
2023-05-06T10:03:29.011Z,16.85
2023-05-06T10:05:57.217Z,19.98
2023-05-06T10:08:24.279Z,14.75
2023-05-06T10:10:51.401Z,17.05
2023-05-06T10:13:19.490Z,23.30
2023-05-06T10:15:47.211Z,15.05
2023-05-06T10:18:17.703Z,13.98
2023-05-06T10:20:44.668Z,19.13
2023-05-06T10:23:17.218Z,15.95
2023-05-06T10:25:44.872Z,16.73
2023-05-06T10:28:14.093Z,19.33
2023-05-06T10:30:50.145Z,17.42
2023-05-06T10:33:16.976Z,15.18
2023-05-06T10:35:55.052Z,18.13
2023-05-06T10:38:27.597Z,17.23
2023-05-06T10:40:55.340Z,16.40
2023-05-06T10:43:24.780Z,15.48
2023-05-06T10:46:09.189Z,17.60
2023-05-06T10:48:36.479Z,16.13
2023-05-06T10:51:23.292Z,18.50
2023-05-06T10:53:55.813Z,14.70
2023-05-06T10:56:22.137Z,12.48
2023-05-06T10:58:48.596Z,13.10
2023-05-06T11:01:15.476Z,15.38
2023-05-06T11:03:45.076Z,14.85
2023-05-06T11:06:11.494Z,13.10
2023-05-06T11:08:38.427Z,14.75
2023-05-06T11:11:40.057Z,13.65
2023-05-06T11:14:13.464Z,11.73
2023-05-06T11:16:52.918Z,13.85
2023-05-06T11:19:23.833Z,9.05
2023-05-06T11:21:50.927Z,15.55
2023-05-06T11:24:35.633Z,14.25
2023-05-06T11:27:01.974Z,9.60
2023-05-06T11:29:28.303Z,11.80
2023-05-06T11:31:57.633Z,8.40
2023-05-06T11:34:33.230Z,7.70
2023-05-06T11:37:02.422Z,7.22
2023-05-06T11:39:38.740Z,11.50
2023-05-06T11:42:07.260Z,9.00
2023-05-06T11:44:34.787Z,9.68
2023-05-06T11:47:02.086Z,5.90
2023-05-06T11:49:29.065Z,11.05
2023-05-06T11:51:57.066Z,8.90
2023-05-06T11:54:25.129Z,8.50
2023-05-06T11:56:52.293Z,8.30
2023-05-06T11:59:25.325Z,10.38
2023-05-06T12:01:51.821Z,11.35
2023-05-06T12:04:18.110Z,9.02
2023-05-06T12:06:44.469Z,8.60
2023-05-06T12:09:12.293Z,9.55
2023-05-06T12:11:39.197Z,11.88
2023-05-06T12:14:07.276Z,10.70
2023-05-06T12:16:34.903Z,10.43
2023-05-06T12:19:02.325Z,8.13
2023-05-06T12:21:29.946Z,9.35
2023-05-06T12:23:57.086Z,10.63
2023-05-06T12:26:23.550Z,8.82
2023-05-06T12:29:12.888Z,15.75
2023-05-06T12:31:39.279Z,11.85
2023-05-06T12:34:06.245Z,9.95
2023-05-06T12:36:33.269Z,10.23
2023-05-06T12:39:01.208Z,10.40
2023-05-06T12:41:46.265Z,8.45
2023-05-06T12:44:33.816Z,7.53
2023-05-06T12:47:01.390Z,9.52
2023-05-06T12:49:28.275Z,9.15
2023-05-06T12:52:08.040Z,8.82
2023-05-06T12:54:34.515Z,8.60
2023-05-06T12:57:01.628Z,10.07
2023-05-06T12:59:28.073Z,10.95
2023-05-06T13:01:54.399Z,9.00
2023-05-06T13:04:21.498Z,9.55
2023-05-06T13:06:48.021Z,7.63
2023-05-06T13:09:15.373Z,7.68
2023-05-06T13:11:41.815Z,6.93
2023-05-06T13:14:08.131Z,8.52
2023-05-06T13:16:35.327Z,12.70
2023-05-06T13:19:02.735Z,10.30
2023-05-06T13:21:29.203Z,10.63
2023-05-06T13:24:00.482Z,10.95
2023-05-06T13:26:26.867Z,10.45
2023-05-06T13:28:53.214Z,12.63
2023-05-06T13:31:19.707Z,9.73
2023-05-06T13:33:46.089Z,10.57
2023-05-06T13:36:12.408Z,9.52
2023-05-06T13:38:39.212Z,10.00
2023-05-06T13:41:07.940Z,9.50
2023-05-06T13:43:34.312Z,8.27
2023-05-06T13:46:00.826Z,9.90
2023-05-06T13:48:27.101Z,8.45
2023-05-06T13:50:53.475Z,11.60
2023-05-06T13:53:19.883Z,10.90
2023-05-06T13:55:47.179Z,9.75
2023-05-06T13:58:13.574Z,10.13
2023-05-06T14:00:39.971Z,10.95
2023-05-06T14:03:06.417Z,8.00
2023-05-06T14:05:32.925Z,7.15
2023-05-06T14:07:59.255Z,6.45
2023-05-06T14:10:25.523Z,8.18
2023-05-06T14:12:51.997Z,9.25
2023-05-06T14:15:18.415Z,6.72
2023-05-06T14:17:44.744Z,10.45
2023-05-06T14:20:11.392Z,6.07
2023-05-06T14:22:39.769Z,8.27
2023-05-06T14:25:06.522Z,7.10
2023-05-06T14:27:33.022Z,6.13
2023-05-06T14:29:59.964Z,6.10
2023-05-06T14:32:26.327Z,4.00
2023-05-06T14:34:52.819Z,5.68
2023-05-06T14:37:19.148Z,3.45
2023-05-06T14:39:45.609Z,4.03
2023-05-06T14:42:12.030Z,4.82
2023-05-06T14:44:38.562Z,7.68
2023-05-06T14:47:04.924Z,3.78
2023-05-06T14:49:31.322Z,3.10
2023-05-06T14:51:58.328Z,3.17
2023-05-06T14:54:26.754Z,3.72
2023-05-06T14:56:53.183Z,3.63
2023-05-06T14:59:19.546Z,3.47
2023-05-06T15:01:46.055Z,2.28
2023-05-06T15:04:12.471Z,4.25
2023-05-06T15:06:38.777Z,3.58
2023-05-06T15:09:05.142Z,3.13
2023-05-06T15:11:32.112Z,4.00
2023-05-06T15:13:58.774Z,2.90
2023-05-06T15:16:25.312Z,3.47
2023-05-06T15:18:51.773Z,3.88
2023-05-06T15:21:18.253Z,3.03
2023-05-06T15:23:46.276Z,4.82
2023-05-06T15:26:12.640Z,2.15
2023-05-06T15:28:39.123Z,3.47
2023-05-06T15:31:05.528Z,4.95
2023-05-06T15:33:31.934Z,4.30
2023-05-06T15:35:58.320Z,4.22
2023-05-06T15:38:24.614Z,4.78
2023-05-06T15:40:51.900Z,3.88
2023-05-06T15:43:23.762Z,2.78
2023-05-06T15:45:51.125Z,6.38
2023-05-06T15:48:17.404Z,5.82
2023-05-06T15:50:43.726Z,6.32
2023-05-06T15:53:10.065Z,6.65
2023-05-06T15:55:45.183Z,5.53
2023-05-06T15:58:16.542Z,2.33
2023-05-06T16:00:43.088Z,5.25
2023-05-06T16:03:11.927Z,4.35
2023-05-06T16:05:39.003Z,4.75
2023-05-06T16:08:05.486Z,4.57
2023-05-06T16:10:31.977Z,3.63
2023-05-06T16:12:58.417Z,5.57
2023-05-06T16:15:24.754Z,4.10
2023-05-06T16:17:51.073Z,4.40
2023-05-06T16:20:17.482Z,7.03
2023-05-06T16:22:49.280Z,4.07
2023-05-06T16:25:16.136Z,3.35
2023-05-06T16:27:42.468Z,3.25
2023-05-06T16:30:09.227Z,4.47
2023-05-06T16:32:36.394Z,3.08
2023-05-06T16:35:02.787Z,4.03
2023-05-06T16:37:29.457Z,4.60
2023-05-06T16:39:55.999Z,4.13
2023-05-06T16:42:22.267Z,4.47
2023-05-06T16:44:48.550Z,7.85
2023-05-06T16:47:15.465Z,5.35
2023-05-06T16:49:41.917Z,7.22
2023-05-06T16:52:08.279Z,4.38
2023-05-06T16:54:34.640Z,6.65
2023-05-06T16:57:01.319Z,5.63
2023-05-06T16:59:27.588Z,3.83
2023-05-06T17:01:53.937Z,3.70
2023-05-06T17:04:20.326Z,2.90
2023-05-06T17:06:46.692Z,4.65
2023-05-06T17:09:13.057Z,4.03
2023-05-06T17:11:39.378Z,45.83
2023-05-06T17:14:05.632Z,38.55
2023-05-06T17:16:32.060Z,8.75
2023-05-06T17:18:58.419Z,5.53
2023-05-06T17:21:24.949Z,6.57
2023-05-06T17:23:53.427Z,3.50
2023-05-06T17:26:20.217Z,4.43
2023-05-06T17:28:48.212Z,9.30
2023-05-06T17:31:14.972Z,5.80
2023-05-06T17:33:41.293Z,5.75
2023-05-06T17:36:07.698Z,5.82
2023-05-06T17:38:34.095Z,6.20
2023-05-06T17:41:00.512Z,5.47
2023-05-06T17:43:26.887Z,6.35
2023-05-06T17:45:53.411Z,4.90
2023-05-06T17:48:19.712Z,6.80
2023-05-06T17:50:46.007Z,7.05
2023-05-06T17:53:12.379Z,3.75
2023-05-06T17:55:38.668Z,3.95
2023-05-06T17:58:05.073Z,2.40
2023-05-06T18:00:31.489Z,5.28
2023-05-06T18:02:58.344Z,2.90
2023-05-06T18:05:25.677Z,5.15
2023-05-06T18:07:52.644Z,5.63
2023-05-06T18:10:19.253Z,4.93
2023-05-06T18:12:46.239Z,6.93
2023-05-06T18:15:14.567Z,5.53
2023-05-06T18:17:41.073Z,6.35
2023-05-06T18:20:10.479Z,7.78
2023-05-06T18:22:37.039Z,7.60
2023-05-06T18:25:04.303Z,6.80
2023-05-06T18:27:32.264Z,12.10
2023-05-06T18:29:59.407Z,8.10
2023-05-06T18:32:25.795Z,10.50
2023-05-06T18:34:52.265Z,9.55
2023-05-06T18:37:18.671Z,7.28
2023-05-06T18:39:45.612Z,8.55
2023-05-06T18:42:12.169Z,7.45
2023-05-06T18:44:38.504Z,8.88
2023-05-06T18:47:05.248Z,7.80
2023-05-06T18:49:31.710Z,8.48
2023-05-06T18:52:00.241Z,9.30
2023-05-06T18:54:26.588Z,10.40
2023-05-06T18:56:52.957Z,10.00
2023-05-06T18:59:19.647Z,15.15
2023-05-06T19:01:51.109Z,10.35
2023-05-06T19:04:17.424Z,10.52
2023-05-06T19:06:43.818Z,11.82
2023-05-06T19:09:11.265Z,13.50
2023-05-06T19:11:37.628Z,13.48
2023-05-06T19:14:03.973Z,11.60
2023-05-06T19:16:30.567Z,9.70
2023-05-06T19:18:56.857Z,14.52
2023-05-06T19:21:23.477Z,15.68
2023-05-06T19:23:49.781Z,13.48
2023-05-06T19:26:16.202Z,15.25
2023-05-06T19:28:42.514Z,12.35
2023-05-06T19:31:09.703Z,12.10
2023-05-06T19:33:36.704Z,17.50
2023-05-06T19:36:03.484Z,17.40
2023-05-06T19:38:30.414Z,16.67
2023-05-06T19:40:56.791Z,16.40
2023-05-06T19:43:23.175Z,16.90
2023-05-06T19:45:49.536Z,13.65
2023-05-06T19:48:15.987Z,19.05
2023-05-06T19:50:42.322Z,16.52
2023-05-06T19:53:08.781Z,15.88
2023-05-06T19:55:35.079Z,18.85
2023-05-06T19:58:02.334Z,14.13
2023-05-06T20:00:30.495Z,15.88
2023-05-06T20:02:57.856Z,15.00
2023-05-06T20:05:25.060Z,18.00
2023-05-06T20:07:51.360Z,21.23
2023-05-06T20:10:17.845Z,18.33
2023-05-06T20:12:44.166Z,17.55
2023-05-06T20:15:10.828Z,17.17
2023-05-06T20:17:37.932Z,16.85
2023-05-06T20:20:09.759Z,22.65
2023-05-06T20:22:36.853Z,19.88
2023-05-06T20:25:10.542Z,19.73
2023-05-06T20:27:37.169Z,21.30
2023-05-06T20:30:06.086Z,19.80
2023-05-06T20:32:32.532Z,17.77
2023-05-06T20:34:59.251Z,23.85
2023-05-06T20:37:25.872Z,26.80
2023-05-06T20:39:52.278Z,23.98
2023-05-06T20:42:18.645Z,19.20
2023-05-06T20:44:47.013Z,19.02
2023-05-06T20:47:13.308Z,19.70
2023-05-06T20:49:39.780Z,21.77
2023-05-06T20:52:07.917Z,20.15
2023-05-06T20:54:34.729Z,23.52
2023-05-06T20:57:02.407Z,25.10
2023-05-06T20:59:29.825Z,22.02
2023-05-06T21:01:56.518Z,22.30
2023-05-06T21:04:23.022Z,27.10
2023-05-06T21:06:49.306Z,22.23
2023-05-06T21:09:15.671Z,20.80
2023-05-06T21:11:41.984Z,23.83
2023-05-06T21:14:08.475Z,22.45
2023-05-06T21:16:34.792Z,24.27
2023-05-06T21:19:01.059Z,21.88
2023-05-06T21:21:30.181Z,25.45
2023-05-06T21:23:56.900Z,25.15
2023-05-06T21:26:23.215Z,26.33
2023-05-06T21:28:52.304Z,23.10
2023-05-06T21:31:22.708Z,22.48
2023-05-06T21:33:51.353Z,25.25
2023-05-06T21:36:17.675Z,20.65
2023-05-06T21:38:44.085Z,20.55
2023-05-06T21:41:10.449Z,20.92
2023-05-06T21:43:36.706Z,22.77
2023-05-06T21:46:03.913Z,24.40
2023-05-06T21:48:30.747Z,18.83
2023-05-06T21:50:58.633Z,17.63
2023-05-06T21:53:25.281Z,18.77
2023-05-06T21:55:52.140Z,18.05
2023-05-06T21:58:18.532Z,19.10
2023-05-06T22:00:44.881Z,18.80
2023-05-06T22:03:11.265Z,15.88
2023-05-06T22:05:37.708Z,17.92
2023-05-06T22:08:04.128Z,19.88
2023-05-06T22:10:30.494Z,17.25
2023-05-06T22:12:56.863Z,18.15
2023-05-06T22:15:23.180Z,19.90
2023-05-06T22:17:49.835Z,21.23
2023-05-06T22:20:17.587Z,17.95
2023-05-06T22:22:45.675Z,17.90
2023-05-06T22:25:12.241Z,19.05
2023-05-06T22:27:39.016Z,19.25
2023-05-06T22:30:05.583Z,17.08
2023-05-06T22:32:31.901Z,18.45
2023-05-06T22:34:58.550Z,17.67
2023-05-06T22:37:24.825Z,19.55
2023-05-06T22:39:52.958Z,14.57
2023-05-06T22:42:20.416Z,16.98
2023-05-06T22:44:47.149Z,18.48
2023-05-06T22:47:14.319Z,14.55
2023-05-06T22:49:40.592Z,14.07
2023-05-06T22:52:06.902Z,14.20
2023-05-06T22:54:33.191Z,14.23
2023-05-06T22:56:59.660Z,15.13
2023-05-06T22:59:25.956Z,12.38
2023-05-06T23:01:52.285Z,13.32
2023-05-06T23:04:18.755Z,12.93
2023-05-06T23:06:45.169Z,15.20
2023-05-06T23:09:12.392Z,11.35
2023-05-06T23:11:38.823Z,13.30
2023-05-06T23:14:05.182Z,11.65
2023-05-06T23:16:31.681Z,13.43
2023-05-06T23:18:58.009Z,20.95
2023-05-06T23:21:24.581Z,16.00
2023-05-06T23:23:50.922Z,11.73
2023-05-06T23:26:17.256Z,11.43
2023-05-06T23:28:43.640Z,12.75
2023-05-06T23:31:10.218Z,10.85
2023-05-06T23:33:36.563Z,10.43
2023-05-06T23:36:02.924Z,11.40
2023-05-06T23:38:29.601Z,8.43
2023-05-06T23:40:55.901Z,11.10
2023-05-06T23:43:22.220Z,9.93
2023-05-06T23:45:48.501Z,10.63
2023-05-06T23:48:14.803Z,8.38
2023-05-06T23:50:41.186Z,10.35
2023-05-06T23:53:07.564Z,9.38
2023-05-06T23:55:33.950Z,8.82
2023-05-06T23:58:00.774Z,10.68
